Strona główna
METAR-TAF:

METAR-TAF

Lotnisko :

Tanagra, Grecja

Szerokość geograficzna: 38-19N, Długość geograficzna: 023-32E, wysokość: 148 m

METAR: brakujący

czas: 23:26 (20:26 UTC)

Prognoza

Raport powstał 3 godziny i 26 minut temu, godzina 17:00 UTC
Prognoza ważna od 22 godzina 18 UTC do 23 godzina 03 UTC
Wiatr 10 kt od północ
Widzialność 10 km lub więcej
Mało chmury na wysokości 3000 ft

TAF: LGTG 221700Z 2218/2303 35010KT 9999 FEW030

Obserwacja i prognoza pogody dla ponad 4000 lotnisk (raport METAR i TAF).

Dostępne stacje oznaczono żółtymi i czerwonymi punktami na mapie.

Najedź kursorem aby zobaczyć nazwę stacji.

Kliknij aby zobaczyć obserwacje i prognozy pogody.

Aby zmienić mapę: kliknij na zielony przycisk z czarnym krzyżykiem, aby powiększyć; na zielony przycisk z myślnikiem, aby pomniejszyć; na zielone strzałki, aby przejść do map sąsiednich.


METAR-TAF: